createdAt,value
2023-05-23T00:00:45.796Z,99531.19
2023-05-23T00:05:49.419Z,99524.25
2023-05-23T00:10:54.454Z,99524.28
2023-05-23T00:15:58.113Z,99528.66
2023-05-23T00:21:02.561Z,99528.69
2023-05-23T00:26:07.534Z,99526.09
2023-05-23T00:31:12.584Z,99522.66
2023-05-23T00:36:16.185Z,99528.72
2023-05-23T00:41:21.372Z,99513.09
2023-05-23T00:46:24.930Z,99504.47
2023-05-23T00:51:29.322Z,99516.59
2023-05-23T00:56:34.253Z,99520.91
2023-05-23T01:01:38.246Z,99517.47
2023-05-23T01:06:41.985Z,99517.47
2023-05-23T01:11:54.180Z,99519.19
2023-05-23T01:17:02.778Z,99484.59
2023-05-23T01:22:16.327Z,99511.41
2023-05-23T01:27:30.173Z,99513.16
2023-05-23T01:32:35.949Z,99505.38
2023-05-23T01:37:39.490Z,99501.00
2023-05-23T01:42:43.193Z,99499.25
2023-05-23T01:47:52.284Z,99464.56
2023-05-23T01:52:57.084Z,99492.25
2023-05-23T01:58:02.022Z,99490.41
2023-05-23T02:03:07.460Z,99496.38
2023-05-23T02:08:11.173Z,99485.00
2023-05-23T02:13:14.727Z,99498.78
2023-05-23T02:18:19.863Z,99489.06
2023-05-23T02:23:43.290Z,99496.78
2023-05-23T02:28:46.765Z,99492.25
2023-05-23T02:33:51.833Z,99450.28
2023-05-23T02:38:55.395Z,99476.75
2023-05-23T02:43:59.026Z,99458.84
2023-05-23T02:49:03.915Z,99470.38
2023-05-23T02:54:07.588Z,99471.75
2023-05-23T02:59:12.427Z,99471.28
2023-05-23T03:04:18.504Z,99480.34
2023-05-23T03:09:22.260Z,99472.06
2023-05-23T03:14:26.124Z,99466.41
2023-05-23T03:19:32.110Z,99457.34
2023-05-23T03:24:36.507Z,99473.00
2023-05-23T03:29:40.043Z,99476.50
2023-05-23T03:34:45.004Z,99481.69
2023-05-23T03:39:48.526Z,99475.88
2023-05-23T03:44:52.154Z,99483.56
2023-05-23T03:49:57.166Z,99484.66
2023-05-23T03:55:00.673Z,99475.25
2023-05-23T04:00:06.320Z,99492.44
2023-05-23T04:05:11.827Z,99480.81
2023-05-23T04:10:15.466Z,99460.31
2023-05-23T04:15:21.755Z,99473.59
2023-05-23T04:20:26.879Z,99467.78
2023-05-23T04:25:30.456Z,99449.84
2023-05-23T04:30:34.264Z,99446.34
2023-05-23T04:35:41.147Z,99454.03
2023-05-23T04:40:45.037Z,99450.53
2023-05-23T04:45:50.096Z,99466.34
2023-05-23T04:50:56.324Z,99463.50
2023-05-23T04:55:59.813Z,99461.22
2023-05-23T05:01:03.513Z,99469.06
2023-05-23T05:06:09.096Z,99468.38
2023-05-23T05:11:12.736Z,99463.72
2023-05-23T05:16:16.363Z,99472.69
2023-05-23T05:21:21.315Z,99471.56
2023-05-23T05:26:25.098Z,99474.56
2023-05-23T05:31:29.790Z,99461.91
2023-05-23T05:36:34.992Z,99471.19
2023-05-23T05:41:38.807Z,99473.56
2023-05-23T05:46:42.555Z,99470.09
2023-05-23T05:51:47.735Z,99489.06
2023-05-23T05:56:51.324Z,99493.59
2023-05-23T06:01:55.043Z,99475.91
2023-05-23T06:07:00.177Z,99481.72
2023-05-23T06:12:03.736Z,99462.88
2023-05-23T06:17:07.236Z,99466.00
2023-05-23T06:22:12.233Z,99466.22
2023-05-23T06:27:15.777Z,99459.31
2023-05-23T06:32:19.313Z,99458.91
2023-05-23T06:37:24.268Z,99442.25
2023-05-23T06:42:28.987Z,99447.56
2023-05-23T06:47:32.562Z,99437.47
2023-05-23T06:52:37.542Z,99437.13
2023-05-23T06:57:41.154Z,99433.06
2023-05-23T07:02:45.723Z,99426.44
2023-05-23T07:07:50.877Z,99421.78
2023-05-23T07:12:54.439Z,99424.38
2023-05-23T07:17:58.025Z,99414.75
2023-05-23T07:23:02.974Z,99410.84
2023-05-23T07:28:06.592Z,99399.69
2023-05-23T07:33:10.188Z,99406.63
2023-05-23T07:38:15.241Z,99398.28
2023-05-23T07:43:18.807Z,99400.94
2023-05-23T07:48:22.383Z,99395.25
2023-05-23T07:53:27.376Z,99408.38
2023-05-23T07:58:30.917Z,99403.84
2023-05-23T08:03:34.141Z,99404.47
2023-05-23T08:08:39.106Z,99405.47
2023-05-23T08:13:42.771Z,99400.00
2023-05-23T08:18:46.180Z,99396.38
2023-05-23T08:23:51.089Z,99405.03
2023-05-23T08:28:54.861Z,99397.25
2023-05-23T08:33:59.109Z,99388.81
2023-05-23T08:39:04.679Z,99391.91
2023-05-23T08:44:08.270Z,99385.72
2023-05-23T08:49:14.483Z,99380.81
2023-05-23T08:54:20.019Z,99383.50
2023-05-23T08:59:24.093Z,99375.88
2023-05-23T09:04:29.326Z,99378.13
2023-05-23T09:09:34.475Z,99381.88
2023-05-23T09:14:37.982Z,99372.81
2023-05-23T09:19:43.359Z,99390.19
2023-05-23T09:24:48.426Z,99382.19
2023-05-23T09:29:52.173Z,99386.66
2023-05-23T09:34:58.957Z,99391.69
2023-05-23T09:40:10.550Z,99380.63
2023-05-23T09:45:14.829Z,99382.34
2023-05-23T09:50:18.633Z,99398.41
2023-05-23T09:55:23.626Z,99386.13
2023-05-23T10:00:28.760Z,99394.41
2023-05-23T10:05:41.708Z,99391.31
2023-05-23T10:11:32.800Z,99388.34
2023-05-23T10:16:45.689Z,99394.97
2023-05-23T10:21:54.659Z,99393.41
2023-05-23T10:26:59.627Z,99408.00
2023-05-23T10:32:06.758Z,99413.28
2023-05-23T10:37:18.421Z,99419.72
2023-05-23T10:42:29.689Z,99420.19
2023-05-23T10:47:36.387Z,99420.56
2023-05-23T10:52:41.756Z,99419.97
2023-05-23T10:57:45.963Z,99418.69
2023-05-23T11:02:56.671Z,99418.78
2023-05-23T11:08:10.845Z,99421.56
2023-05-23T11:13:14.212Z,99421.63
2023-05-23T11:18:29.283Z,99419.72
2023-05-23T11:23:42.518Z,99418.56
2023-05-23T11:28:58.071Z,99420.69
2023-05-23T11:34:03.656Z,99421.09
2023-05-23T11:39:07.222Z,99424.63
2023-05-23T11:44:14.156Z,99431.50
2023-05-23T11:49:19.129Z,99415.16
2023-05-23T11:54:24.842Z,99404.97
2023-05-23T11:59:28.696Z,99425.56
2023-05-23T12:04:35.722Z,99442.16
2023-05-23T12:09:46.688Z,99434.31
2023-05-23T12:14:50.255Z,99442.22
2023-05-23T12:19:55.891Z,99438.75
2023-05-23T12:24:59.507Z,99436.88
2023-05-23T12:30:07.801Z,99438.94
2023-05-23T12:35:14.567Z,99437.28
2023-05-23T12:40:20.611Z,99424.53
2023-05-23T12:45:25.310Z,99419.94
2023-05-23T12:50:30.318Z,99417.19
2023-05-23T12:55:33.831Z,99417.81
2023-05-23T13:00:38.032Z,99404.13
2023-05-23T13:05:42.901Z,99411.41
2023-05-23T13:10:46.329Z,99414.75
2023-05-23T13:15:51.117Z,99412.50
2023-05-23T13:20:56.743Z,99411.41
2023-05-23T13:26:00.648Z,99409.91
2023-05-23T13:31:04.423Z,99398.13
2023-05-23T13:36:09.636Z,99398.63
2023-05-23T13:41:13.339Z,99405.31
2023-05-23T13:46:16.952Z,99397.63
2023-05-23T13:51:21.997Z,99391.72
2023-05-23T13:56:25.745Z,99395.69
2023-05-23T14:01:29.719Z,99374.31
2023-05-23T14:06:34.696Z,99371.59
2023-05-23T14:11:38.264Z,99380.16
2023-05-23T14:16:42.070Z,99390.53
2023-05-23T14:21:47.330Z,99380.22
2023-05-23T14:26:51.172Z,99377.06
2023-05-23T14:31:54.802Z,99378.09
2023-05-23T14:37:00.135Z,99379.56
2023-05-23T14:42:03.982Z,99374.34
2023-05-23T14:47:08.086Z,99382.91
2023-05-23T14:52:13.924Z,99370.75
2023-05-23T14:57:17.532Z,99367.09
2023-05-23T15:02:21.138Z,99352.34
2023-05-23T15:07:26.282Z,99358.19
2023-05-23T15:12:30.315Z,99353.31
2023-05-23T15:17:34.762Z,99311.31
2023-05-23T15:22:40.425Z,99343.03
2023-05-23T15:27:45.114Z,99335.88
2023-05-23T15:32:49.356Z,99332.25
2023-05-23T15:37:54.398Z,99333.63
2023-05-23T15:42:57.967Z,99334.75
2023-05-23T15:48:01.562Z,99327.81
2023-05-23T15:53:06.586Z,99323.47
2023-05-23T15:58:10.775Z,99324.09
2023-05-23T16:03:14.062Z,99322.69
2023-05-23T16:08:19.062Z,99310.38
2023-05-23T16:13:22.598Z,99303.69
2023-05-23T16:18:26.214Z,99307.56
2023-05-23T16:23:33.136Z,99300.16
2023-05-23T16:28:36.604Z,99292.94
2023-05-23T16:33:40.117Z,99290.47
2023-05-23T16:38:45.068Z,99283.34
2023-05-23T16:43:48.559Z,99280.34
2023-05-23T16:48:52.175Z,99274.34
2023-05-23T16:53:57.137Z,99271.81
2023-05-23T16:59:00.991Z,99278.13
2023-05-23T17:04:05.780Z,99268.53
2023-05-23T17:09:10.798Z,99275.09
2023-05-23T17:14:14.540Z,99280.72
2023-05-23T17:19:18.162Z,99285.34
2023-05-23T17:24:23.215Z,99294.34
2023-05-23T17:29:27.325Z,99299.06
2023-05-23T17:34:30.884Z,99295.03
2023-05-23T17:39:36.061Z,99309.41
2023-05-23T17:44:40.621Z,99300.69
2023-05-23T17:49:44.148Z,99296.47
2023-05-23T17:54:49.080Z,99303.25
2023-05-23T17:59:52.663Z,99292.34
2023-05-23T18:04:56.728Z,99271.16
2023-05-23T18:10:01.869Z,99258.31
2023-05-23T18:15:06.659Z,99254.00
2023-05-23T18:20:11.221Z,99257.53
2023-05-23T18:25:19.705Z,99255.94
2023-05-23T18:30:24.763Z,99248.69
2023-05-23T18:35:28.320Z,99246.16
2023-05-23T18:40:33.562Z,99249.84
2023-05-23T18:45:37.176Z,99244.88
2023-05-23T18:50:42.854Z,99242.41
2023-05-23T18:55:48.049Z,99244.25
2023-05-23T19:00:51.924Z,99233.75
2023-05-23T19:05:59.677Z,99233.06
2023-05-23T19:11:04.962Z,99219.16
2023-05-23T19:16:08.630Z,99213.31
2023-05-23T19:21:13.009Z,99224.53
2023-05-23T19:26:19.203Z,99220.81
2023-05-23T19:31:23.980Z,99227.03
2023-05-23T19:36:27.566Z,99224.38
2023-05-23T19:41:32.887Z,99221.75
2023-05-23T19:46:36.571Z,99220.81
2023-05-23T19:51:40.281Z,99216.50
2023-05-23T19:56:45.783Z,99223.63
2023-05-23T20:01:49.552Z,99216.06
2023-05-23T20:06:53.960Z,99192.84
2023-05-23T20:11:58.610Z,99209.50
2023-05-23T20:17:02.085Z,99205.41
2023-05-23T20:22:05.745Z,99209.91
2023-05-23T20:27:10.729Z,99206.25
2023-05-23T20:32:14.325Z,99203.63
2023-05-23T20:37:17.888Z,99205.56
2023-05-23T20:42:22.869Z,99195.00
2023-05-23T20:47:27.057Z,99197.69
2023-05-23T20:52:30.825Z,99194.38
2023-05-23T20:57:37.258Z,99193.44
2023-05-23T21:02:41.124Z,99204.00
2023-05-23T21:07:45.242Z,99189.97
2023-05-23T21:12:51.060Z,99179.66
2023-05-23T21:17:54.952Z,99178.03
2023-05-23T21:22:58.755Z,99183.28
2023-05-23T21:28:03.771Z,99176.31
2023-05-23T21:33:08.122Z,99181.72
2023-05-23T21:38:11.849Z,99182.63
2023-05-23T21:43:16.811Z,99176.47
2023-05-23T21:48:20.310Z,99170.38
2023-05-23T21:53:23.862Z,99173.25
2023-05-23T21:58:28.874Z,99170.81
2023-05-23T22:03:32.544Z,99163.91
2023-05-23T22:08:36.277Z,99148.50
2023-05-23T22:13:41.557Z,99142.34
2023-05-23T22:23:52.541Z,99153.75
2023-05-23T22:28:57.464Z,99149.13
2023-05-23T22:34:01.040Z,99152.53
2023-05-23T22:39:05.730Z,99156.03
2023-05-23T22:44:10.862Z,99138.72
2023-05-23T22:49:15.559Z,99148.97
2023-05-23T22:54:19.221Z,99137.81
2023-05-23T22:59:24.174Z,99138.72
2023-05-23T23:04:31.073Z,99147.59
2023-05-23T23:09:34.682Z,99144.94
2023-05-23T23:14:39.697Z,99142.47
2023-05-23T23:19:43.292Z,99143.44
2023-05-23T23:24:47.679Z,99141.69
2023-05-23T23:29:52.717Z,99142.41
2023-05-23T23:34:56.287Z,99140.63
2023-05-23T23:40:00.392Z,99132.16
2023-05-23T23:45:06.044Z,99132.22
2023-05-23T23:50:13.708Z,99133.25
2023-05-23T23:55:17.261Z,99132.25
